Time;durP1;ratioP1;P1;durP2;ratioP2;P2;SDS_P1;SDS_P2;PMS_P1;PMS_P2;Temp;Humidity;BMP_temperature;BMP_pressure;BME280_temperature;BME280_humidity;BME280_pressure;Samples;Min_cycle;Max_cycle;Signal;HPM_P1;HPM_P2
2022/05/26 00:01:29;;;;;;;3.13;1.57;;;15.50;99.90;;;;;;5021576;28;20445;-66
2022/05/26 00:03:56;;;;;;;4.93;1.70;;;15.50;99.90;;;;;;5019246;28;20318;-66
2022/05/26 00:06:24;;;;;;;3.10;1.57;;;15.70;99.90;;;;;;5021840;28;20204;-66
2022/05/26 00:08:51;;;;;;;1.83;1.23;;;15.70;99.90;;;;;;5019019;28;20231;-66
2022/05/26 00:11:31;;;;;;;3.33;1.30;;;15.60;99.90;;;;;;5020263;28;20204;-67
2022/05/26 00:14:01;;;;;;;1.23;1.13;;;15.50;99.90;;;;;;5019287;28;20648;-66
2022/05/26 00:16:28;;;;;;;2.20;1.13;;;15.50;99.90;;;;;;5023720;28;20212;-66
2022/05/26 00:18:55;;;;;;;1.80;1.03;;;15.60;99.90;;;;;;5025425;28;20246;-66
2022/05/26 00:21:22;;;;;;;2.23;1.40;;;15.60;99.90;;;;;;5019208;28;20195;-66
2022/05/26 00:23:48;;;;;;;1.60;1.20;;;15.50;99.90;;;;;;5023203;28;20211;-66
2022/05/26 00:26:15;;;;;;;1.80;1.27;;;15.40;99.90;;;;;;5019793;28;20200;-66
2022/05/26 00:28:42;;;;;;;1.60;1.20;;;15.30;99.90;;;;;;5027569;28;20192;-67
2022/05/26 00:31:08;;;;;;;2.80;1.20;;;15.30;99.90;;;;;;5018243;28;20218;-67
2022/05/26 00:33:35;;;;;;;5.23;1.30;;;15.20;99.90;;;;;;5017955;28;20282;-65
2022/05/26 00:36:07;;;;;;;1.90;1.33;;;15.20;99.90;;;;;;5023793;28;20239;-65
2022/05/26 00:38:33;;;;;;;3.87;1.40;;;15.30;99.90;;;;;;5018834;28;20211;-65
2022/05/26 00:41:06;;;;;;;2.87;1.70;;;15.30;99.90;;;;;;5020846;28;20192;-65
2022/05/26 00:43:33;;;;;;;1.93;1.40;;;15.30;99.90;;;;;;5016715;28;20192;-65
2022/05/26 00:46:15;;;;;;;2.80;1.60;;;15.20;99.90;;;;;;5020866;28;20207;-65
2022/05/26 00:48:50;;;;;;;4.73;1.97;;;15.20;99.90;;;;;;5021601;28;20196;-65
2022/05/26 00:51:26;;;;;;;5.13;2.00;;;15.20;99.90;;;;;;5020854;28;20202;-65
2022/05/26 00:53:56;;;;;;;2.20;1.87;;;15.30;99.90;;;;;;5023504;28;20705;-65
2022/05/26 00:56:32;;;;;;;3.80;1.70;;;15.30;99.90;;;;;;5022099;28;20215;-65
2022/05/26 00:59:18;;;;;;;3.37;1.70;;;15.40;99.90;;;;;;5019223;28;20294;-65
2022/05/26 01:01:46;;;;;;;2.23;1.87;;;15.30;99.90;;;;;;5021363;28;20200;-65
2022/05/26 01:04:18;;;;;;;2.53;1.77;;;15.40;99.90;;;;;;5023627;28;20306;-65
2022/05/26 01:06:59;;;;;;;2.03;1.70;;;15.40;99.90;;;;;;5018614;28;20243;-65
2022/05/26 01:09:26;;;;;;;2.93;2.10;;;15.30;99.90;;;;;;5021432;28;20686;-65
2022/05/26 01:11:53;;;;;;;1.87;1.57;;;15.20;99.90;;;;;;5018550;28;20204;-65
2022/05/26 01:14:29;;;;;;;3.73;1.70;;;15.20;99.90;;;;;;5019452;28;20222;-65
2022/05/26 01:17:02;;;;;;;2.83;1.70;;;15.20;99.90;;;;;;5020925;28;20570;-65
2022/05/26 01:19:46;;;;;;;5.83;1.80;;;15.30;99.90;;;;;;5019285;28;20191;-65
2022/05/26 01:23:01;;;;;;;3.00;1.73;;;15.50;99.90;;;;;;5011053;28;20249;-65
2022/05/26 01:25:34;;;;;;;3.50;1.90;;;15.50;99.90;;;;;;5021620;28;20215;-65
2022/05/26 01:28:15;;;;;;;3.10;1.80;;;15.50;99.90;;;;;;5014582;28;20203;-65
2022/05/26 01:31:07;;;;;;;3.43;1.70;;;15.50;99.90;;;;;;5021006;28;20655;-65
2022/05/26 01:33:44;;;;;;;2.63;1.40;;;15.50;99.90;;;;;;5020319;28;20294;-65
2022/05/26 01:36:16;;;;;;;4.30;1.40;;;15.50;99.90;;;;;;5016819;28;20219;-65
2022/05/26 01:39:07;;;;;;;2.73;1.30;;;15.50;99.90;;;;;;5020860;28;20560;-65
2022/05/26 01:41:37;;;;;;;3.13;1.13;;;15.40;99.90;;;;;;5020518;28;20200;-65
2022/05/26 01:44:46;;;;;;;1.17;1.07;;;15.40;99.90;;;;;;5023981;28;20269;-65
2022/05/26 01:47:27;;;;;;;1.87;1.10;;;15.40;99.90;;;;;;5020574;28;20191;-65
2022/05/26 01:50:01;;;;;;;3.30;1.10;;;15.40;99.90;;;;;;5022145;28;20721;-65
2022/05/26 01:52:35;;;;;;;1.37;1.00;;;15.40;99.90;;;;;;5024306;28;20195;-65
2022/05/26 01:55:25;;;;;;;1.90;1.00;;;15.50;99.90;;;;;;5019241;28;20326;-65
2022/05/26 01:58:03;;;;;;;1.30;1.10;;;15.60;99.90;;;;;;5022924;28;20659;-65
2022/05/26 02:00:31;;;;;;;1.40;1.07;;;15.50;99.90;;;;;;5021996;28;20196;-65
2022/05/26 02:03:06;;;;;;;1.20;1.10;;;15.50;99.90;;;;;;5018818;28;20214;-65
2022/05/26 02:05:39;;;;;;;1.60;1.20;;;15.50;99.90;;;;;;5027571;28;20243;-65
2022/05/26 02:08:32;;;;;;;1.17;1.00;;;15.50;99.90;;;;;;5017778;28;20204;-66
2022/05/26 02:11:18;;;;;;;1.77;1.20;;;15.40;99.90;;;;;;5023863;28;20603;-66
2022/05/26 02:13:55;;;;;;;1.43;1.20;;;15.40;99.90;;;;;;5024672;28;20199;-66
2022/05/26 02:16:42;;;;;;;3.90;1.60;;;15.50;99.90;;;;;;5019388;28;20460;-67
2022/05/26 02:19:21;;;;;;;1.23;1.00;;;15.50;99.90;;;;;;5020111;28;20627;-68
2022/05/26 02:21:51;;;;;;;2.93;1.27;;;15.40;99.90;;;;;;5022877;28;20640;-68
2022/05/26 02:24:38;;;;;;;1.67;1.10;;;15.20;99.90;;;;;;5028001;28;20211;-67
2022/05/26 02:27:06;;;;;;;2.50;1.00;;;15.20;99.90;;;;;;5020122;28;20195;-67
2022/05/26 02:32:38;;;;;;;2.50;1.20;;;14.90;99.90;;;;;;5005061;28;20213;-67
2022/05/26 02:35:12;;;;;;;1.67;1.00;;;14.80;99.90;;;;;;5044502;28;20234;-67
2022/05/26 02:37:41;;;;;;;1.97;1.00;;;14.70;99.90;;;;;;5017806;28;20192;-67
2022/05/26 02:40:10;;;;;;;3.10;1.03;;;14.60;99.90;;;;;;5017798;28;20194;-67
2022/05/26 02:42:47;;;;;;;2.03;1.10;;;14.80;99.90;;;;;;5023814;28;20206;-66
2022/05/26 02:45:18;;;;;;;3.03;1.00;;;14.70;99.90;;;;;;5025059;28;20245;-66
2022/05/26 02:47:58;;;;;;;1.33;1.00;;;14.50;99.90;;;;;;5020471;28;20249;-66
2022/05/26 02:50:47;;;;;;;1.40;1.10;;;14.40;99.90;;;;;;5019856;28;20202;-67
2022/05/26 02:53:31;;;;;;;1.87;1.00;;;14.40;99.90;;;;;;5022727;28;20210;-66
2022/05/26 02:56:20;;;;;;;1.37;1.00;;;14.30;99.90;;;;;;5019623;28;20238;-67
2022/05/26 02:59:15;;;;;;;1.83;1.07;;;14.30;99.90;;;;;;5021725;28;20195;-67
2022/05/26 03:02:05;;;;;;;1.30;1.00;;;14.40;99.90;;;;;;5027592;28;20198;-67
2022/05/26 03:04:46;;;;;;;2.27;1.10;;;14.30;99.90;;;;;;5024322;28;20225;-67
2022/05/26 03:07:17;;;;;;;1.53;1.10;;;14.30;99.90;;;;;;5019721;28;20766;-66
2022/05/26 03:09:44;;;;;;;1.13;0.87;;;14.30;99.90;;;;;;5024485;28;20561;-66
2022/05/26 03:12:27;;;;;;;2.97;1.00;;;14.20;99.90;;;;;;5028044;28;20218;-66
2022/05/26 03:14:54;;;;;;;2.13;0.90;;;14.20;99.90;;;;;;5018739;28;20704;-66
2022/05/26 03:17:21;;;;;;;1.27;0.90;;;14.20;99.90;;;;;;5020376;28;20212;-66
2022/05/26 03:19:48;;;;;;;1.30;1.00;;;14.10;99.90;;;;;;5027944;28;20571;-66
2022/05/26 03:22:16;;;;;;;1.00;0.90;;;14.00;99.90;;;;;;5025556;28;20189;-66
2022/05/26 03:24:42;;;;;;;1.63;1.13;;;14.00;99.90;;;;;;5024894;28;20218;-67
2022/05/26 03:27:09;;;;;;;1.10;1.00;;;13.90;99.90;;;;;;5025531;28;20206;-66
2022/05/26 03:29:36;;;;;;;1.17;0.90;;;14.00;99.90;;;;;;5025304;28;20557;-67
2022/05/26 03:32:04;;;;;;;0.97;0.87;;;13.90;99.90;;;;;;5024512;28;20200;-67
2022/05/26 03:42:48;;;;;;;2.10;0.87;;;14.00;99.90;;;;;;5022162;28;20229;-67
2022/05/26 03:45:22;;;;;;;2.10;1.00;;;14.00;99.90;;;;;;5019148;28;21344;-67
2022/05/26 03:47:50;;;;;;;1.97;0.90;;;13.90;99.90;;;;;;5025200;28;20201;-67
2022/05/26 03:50:17;;;;;;;1.80;0.80;;;13.90;99.90;;;;;;5023265;28;20292;-68
2022/05/26 03:52:44;;;;;;;1.43;1.00;;;14.00;99.90;;;;;;5024558;28;20197;-68
2022/05/26 03:55:11;;;;;;;0.93;0.83;;;14.10;99.90;;;;;;5026348;28;20223;-67
2022/05/26 03:57:37;;;;;;;1.00;0.90;;;14.10;99.90;;;;;;5025628;28;20205;-67
2022/05/26 04:00:05;;;;;;;2.90;1.10;;;14.00;99.90;;;;;;5020318;28;20201;-66
2022/05/26 04:02:34;;;;;;;1.83;1.43;;;13.90;99.90;;;;;;5022279;28;20204;-66
2022/05/26 04:05:01;;;;;;;2.97;1.07;;;13.90;99.90;;;;;;5024755;28;20600;-67
2022/05/26 04:07:28;;;;;;;1.43;1.10;;;14.00;99.90;;;;;;5023714;28;20206;-67
2022/05/26 04:09:54;;;;;;;2.83;1.17;;;14.00;99.90;;;;;;5024001;28;20199;-67
2022/05/26 04:12:21;;;;;;;1.90;1.00;;;14.00;99.90;;;;;;5023810;28;20210;-67
2022/05/26 04:14:48;;;;;;;3.13;1.20;;;14.20;99.90;;;;;;5025333;28;20227;-67
2022/05/26 04:17:14;;;;;;;1.50;1.00;;;14.10;99.90;;;;;;5021221;28;20221;-67
2022/05/26 04:19:41;;;;;;;2.67;1.30;;;14.10;99.90;;;;;;5016623;28;20295;-68
2022/05/26 04:22:18;;;;;;;5.20;1.20;;;14.20;99.90;;;;;;5023807;28;20689;-69
2022/05/26 04:24:47;;;;;;;2.17;1.30;;;14.10;99.90;;;;;;5023599;28;20226;-66
2022/05/26 04:27:16;;;;;;;1.37;1.10;;;14.20;99.90;;;;;;5036532;28;20194;-66
2022/05/26 04:29:43;;;;;;;2.17;1.10;;;14.20;99.90;;;;;;5024135;28;20214;-68
2022/05/26 04:32:09;;;;;;;1.70;0.90;;;14.20;99.90;;;;;;5024046;28;20217;-67
2022/05/26 04:34:37;;;;;;;1.13;0.80;;;14.30;99.90;;;;;;5018902;28;20228;-69
2022/05/26 04:37:04;;;;;;;1.23;0.80;;;14.20;99.90;;;;;;5015223;28;20255;-67
2022/05/26 04:39:32;;;;;;;0.80;0.80;;;14.40;99.90;;;;;;5022871;28;20197;-67
2022/05/26 04:42:00;;;;;;;3.97;0.80;;;14.50;99.90;;;;;;5023083;28;20202;-67
2022/05/26 04:44:35;;;;;;;1.63;0.80;;;14.50;99.90;;;;;;5024638;28;20739;-67
2022/05/26 04:47:02;;;;;;;0.83;0.80;;;14.50;99.90;;;;;;5023313;28;20210;-67
2022/05/26 04:49:29;;;;;;;1.20;0.90;;;14.60;99.90;;;;;;5025811;28;20194;-68
2022/05/26 04:51:56;;;;;;;2.23;0.83;;;14.60;99.90;;;;;;5020399;28;20210;-68
2022/05/26 04:54:23;;;;;;;2.30;0.90;;;14.70;99.90;;;;;;5027867;28;20241;-68
2022/05/26 04:56:49;;;;;;;0.90;0.80;;;14.70;99.90;;;;;;5018124;28;20215;-68
2022/05/26 04:59:16;;;;;;;2.53;0.80;;;14.80;99.90;;;;;;5024768;28;20201;-66
2022/05/26 05:01:43;;;;;;;1.40;0.83;;;14.80;99.90;;;;;;5019256;28;20205;-67
2022/05/26 05:04:09;;;;;;;1.87;1.10;;;14.80;99.90;;;;;;5020849;28;20292;-67
2022/05/26 05:06:36;;;;;;;1.87;1.00;;;14.90;99.90;;;;;;5024169;28;20412;-67
2022/05/26 05:09:03;;;;;;;2.97;1.10;;;14.90;99.90;;;;;;5021360;28;20669;-67
2022/05/26 05:11:30;;;;;;;2.83;1.13;;;15.20;99.90;;;;;;5025821;28;20812;-66
2022/05/26 05:14:02;;;;;;;1.40;1.10;;;15.20;99.90;;;;;;5026679;28;20229;-67
2022/05/26 05:16:33;;;;;;;3.27;1.00;;;15.40;99.90;;;;;;5018225;28;20228;-68
2022/05/26 05:19:00;;;;;;;3.30;1.10;;;15.40;99.90;;;;;;5024893;28;20191;-67
2022/05/26 05:21:33;;;;;;;3.57;1.20;;;15.50;99.90;;;;;;5022791;28;20192;-67
2022/05/26 05:24:11;;;;;;;3.57;1.00;;;15.60;99.90;;;;;;5020808;28;20329;-66
2022/05/26 05:26:40;;;;;;;3.13;0.90;;;15.70;99.90;;;;;;5020600;28;20203;-67
2022/05/26 05:29:11;;;;;;;3.80;1.10;;;15.80;99.90;;;;;;5026661;28;20567;-67
2022/05/26 05:31:46;;;;;;;1.20;0.73;;;16.00;99.90;;;;;;5021395;28;20222;-67
2022/05/26 05:34:21;;;;;;;1.27;0.90;;;16.30;99.90;;;;;;5021714;28;20211;-67
2022/05/26 05:36:48;;;;;;;1.97;0.90;;;16.60;99.90;;;;;;5023902;28;20226;-67
2022/05/26 05:39:15;;;;;;;1.27;0.90;;;16.90;99.90;;;;;;5023480;28;20206;-67
2022/05/26 05:41:44;;;;;;;1.63;0.93;;;17.20;99.90;;;;;;5024207;28;20199;-70
2022/05/26 05:44:11;;;;;;;1.53;0.80;;;17.40;99.90;;;;;;5022467;28;20238;-68
2022/05/26 05:46:53;;;;;;;3.23;1.07;;;17.50;99.90;;;;;;5021633;28;20689;-68
2022/05/26 05:49:22;;;;;;;2.50;0.80;;;17.50;99.90;;;;;;5026184;28;20206;-66
2022/05/26 05:51:49;;;;;;;1.13;0.70;;;17.60;99.90;;;;;;5023241;28;20206;-67
2022/05/26 05:54:17;;;;;;;1.43;0.90;;;17.60;99.90;;;;;;5022470;28;20230;-67
2022/05/26 05:56:44;;;;;;;1.20;0.73;;;17.70;99.90;;;;;;5024152;28;20215;-66
2022/05/26 05:59:11;;;;;;;1.67;0.70;;;17.60;99.90;;;;;;5026352;28;20195;-68
2022/05/26 06:01:38;;;;;;;1.03;0.70;;;17.80;99.90;;;;;;5016531;28;20196;-69
2022/05/26 06:04:06;;;;;;;1.33;0.80;;;18.00;99.90;;;;;;5022748;28;20694;-68
2022/05/26 06:06:38;;;;;;;0.90;0.60;;;18.20;99.90;;;;;;5019679;28;20204;-68
2022/05/26 06:09:05;;;;;;;1.23;0.70;;;18.40;99.90;;;;;;5024314;28;20200;-68
2022/05/26 06:11:33;;;;;;;0.80;0.60;;;18.40;99.90;;;;;;5031307;28;20207;-69
2022/05/26 06:14:03;;;;;;;1.13;0.60;;;18.50;99.90;;;;;;5028543;28;20756;-67
2022/05/26 06:16:30;;;;;;;0.97;0.50;;;18.70;99.90;;;;;;5022497;28;20713;-68
2022/05/26 06:18:57;;;;;;;2.70;0.70;;;18.70;99.90;;;;;;5030103;28;20204;-66
2022/05/26 06:21:24;;;;;;;0.83;0.60;;;18.60;99.90;;;;;;5022288;28;20267;-66
2022/05/26 06:23:53;;;;;;;0.87;0.60;;;18.50;99.90;;;;;;5018143;28;20219;-66
2022/05/26 06:26:20;;;;;;;2.63;1.23;;;18.80;99.90;;;;;;5021982;28;20207;-66
2022/05/26 06:31:32;;;;;;;0.70;0.60;;;18.80;99.90;;;;;;5021983;28;20847;-67
2022/05/26 06:39:30;;;;;;;0.83;0.53;;;19.10;99.90;;;;;;5012739;28;20626;-66
2022/05/26 06:42:06;;;;;;;1.37;0.60;;;19.50;99.90;;;;;;5021397;28;20208;-65
2022/05/26 06:44:38;;;;;;;2.13;0.60;;;19.60;99.90;;;;;;5016012;28;20212;-68
2022/05/26 06:47:15;;;;;;;2.10;0.60;;;19.30;99.90;;;;;;5019706;28;20196;-65
2022/05/26 06:49:43;;;;;;;0.83;0.67;;;19.50;99.90;;;;;;5024876;28;20203;-66
2022/05/26 06:52:11;;;;;;;0.97;0.63;;;19.80;99.90;;;;;;5024379;28;20261;-66
2022/05/26 06:54:43;;;;;;;2.47;0.77;;;20.00;99.90;;;;;;5022781;28;20499;-66
2022/05/26 06:57:11;;;;;;;1.73;0.77;;;20.00;99.90;;;;;;5026494;28;20226;-66
2022/05/26 06:59:38;;;;;;;1.50;0.90;;;19.90;99.90;;;;;;5026789;28;20192;-67
2022/05/26 07:02:08;;;;;;;1.87;0.70;;;19.70;99.90;;;;;;5020811;28;20290;-67
2022/05/26 07:04:34;;;;;;;0.80;0.60;;;19.50;99.90;;;;;;5020305;28;20220;-67
2022/05/26 07:07:02;;;;;;;4.63;0.80;;;19.60;99.90;;;;;;5020323;28;20637;-67
2022/05/26 07:09:30;;;;;;;1.13;0.90;;;19.90;99.90;;;;;;5022336;28;20200;-67
2022/05/26 07:11:58;;;;;;;1.00;0.60;;;20.30;99.90;;;;;;5022148;28;20224;-68
2022/05/26 07:14:25;;;;;;;1.43;0.70;;;20.40;99.90;;;;;;5030004;28;20243;-67
2022/05/26 07:16:52;;;;;;;1.42;0.70;;;20.60;99.90;;;;;;5030374;28;20216;-68
2022/05/26 07:19:19;;;;;;;0.93;0.50;;;20.70;99.90;;;;;;5012988;28;20286;-67
2022/05/26 07:21:49;;;;;;;1.90;0.80;;;21.00;99.90;;;;;;5016873;28;20190;-66
2022/05/26 07:24:19;;;;;;;0.93;0.60;;;21.40;99.90;;;;;;5018888;28;20706;-67
2022/05/26 07:26:47;;;;;;;1.42;0.80;;;21.60;99.90;;;;;;5023589;28;20204;-69
2022/05/26 07:29:15;;;;;;;3.20;0.80;;;21.70;99.90;;;;;;5019018;28;20200;-68
2022/05/26 07:31:43;;;;;;;1.13;0.70;;;21.60;99.90;;;;;;5025589;28;20223;-68
2022/05/26 07:34:16;;;;;;;2.25;0.82;;;21.30;99.90;;;;;;5027888;28;20246;-68
2022/05/26 07:42:17;;;;;;;1.15;0.95;;;21.80;99.90;;;;;;5022687;28;20195;-68
2022/05/26 07:44:47;;;;;;;0.75;0.63;;;22.20;99.90;;;;;;5015185;28;20613;-67
2022/05/26 07:47:15;;;;;;;1.90;0.93;;;22.80;99.90;;;;;;5014998;28;20203;-67
2022/05/26 07:49:44;;;;;;;0.77;0.70;;;23.30;99.90;;;;;;5020741;28;20650;-67
2022/05/26 07:52:17;;;;;;;3.97;0.80;;;23.00;99.90;;;;;;5016152;28;20195;-69
2022/05/26 07:54:44;;;;;;;1.02;0.70;;;23.10;99.90;;;;;;5022130;28;20348;-66
2022/05/26 07:57:18;;;;;;;0.70;0.57;;;23.10;99.90;;;;;;5012444;28;20230;-64
2022/05/26 07:59:44;;;;;;;1.15;0.73;;;23.10;99.90;;;;;;5019445;28;20192;-68
2022/05/26 08:02:11;;;;;;;2.20;0.70;;;22.00;99.90;;;;;;5027903;28;20191;-67
2022/05/26 08:04:37;;;;;;;2.60;0.70;;;21.70;99.90;;;;;;5021313;28;20215;-65
2022/05/26 08:07:04;;;;;;;1.42;0.63;;;21.60;99.90;;;;;;5015738;28;20710;-67
2022/05/26 08:09:31;;;;;;;1.48;0.65;;;21.70;99.90;;;;;;5013379;28;20201;-67
2022/05/26 08:11:58;;;;;;;4.18;0.75;;;21.80;99.90;;;;;;5019576;28;20214;-67
2022/05/26 08:14:25;;;;;;;2.35;0.70;;;21.70;99.90;;;;;;5020912;28;20222;-69
2022/05/26 08:16:52;;;;;;;1.65;0.60;;;21.60;99.90;;;;;;5025525;28;20211;-70
2022/05/26 08:19:19;;;;;;;2.22;0.65;;;21.40;99.90;;;;;;5028740;28;20670;-70
2022/05/26 08:21:45;;;;;;;2.65;0.82;;;21.20;99.90;;;;;;5021250;28;20191;-71
2022/05/26 08:24:12;;;;;;;2.03;0.80;;;21.50;99.90;;;;;;5024857;28;20702;-70
2022/05/26 08:26:38;;;;;;;1.83;0.77;;;22.30;99.90;;;;;;5027683;28;20192;-70
2022/05/26 08:29:05;;;;;;;0.95;0.70;;;22.80;99.90;;;;;;5027192;28;20216;-69
2022/05/26 08:31:32;;;;;;;1.05;0.70;;;22.90;99.90;;;;;;5026114;28;20200;-71
2022/05/26 08:33:58;;;;;;;1.10;0.60;;;22.50;99.90;;;;;;5025587;28;20732;-71
2022/05/26 08:36:25;;;;;;;1.20;0.60;;;22.60;99.90;;;;;;5023550;28;20215;-71
2022/05/26 08:38:53;;;;;;;2.47;0.70;;;22.80;99.90;;;;;;5023158;28;20194;-72
2022/05/26 08:41:35;;;;;;;1.42;0.63;;;22.50;99.90;;;;;;5033383;28;20250;-71
2022/05/26 08:44:31;;;;;;;1.45;0.73;;;22.70;99.90;;;;;;5024630;28;20215;-69
2022/05/26 08:47:20;;;;;;;1.73;0.80;;;22.50;99.90;;;;;;5025484;28;20196;-71
2022/05/26 08:49:56;;;;;;;2.42;0.60;;;22.90;99.90;;;;;;5026395;28;20204;-69
2022/05/26 08:52:38;;;;;;;0.93;0.70;;;23.20;99.90;;;;;;5026746;28;20198;-72
2022/05/26 08:55:18;;;;;;;2.05;0.82;;;23.20;99.90;;;;;;5020356;28;20226;-69
2022/05/26 08:58:04;;;;;;;2.10;0.90;;;23.40;99.90;;;;;;5024410;28;20223;-71
2022/05/26 09:00:31;;;;;;;2.53;0.90;;;23.30;99.90;;;;;;5024209;28;20519;-69
2022/05/26 09:02:59;;;;;;;1.38;0.68;;;23.50;99.90;;;;;;5026002;28;20651;-69
2022/05/26 09:05:37;;;;;;;1.90;0.70;;;23.70;99.90;;;;;;5022750;28;20247;-70
2022/05/26 09:13:53;;;;;;;1.02;0.70;;;24.40;99.90;;;;;;5024834;28;20215;-67
2022/05/26 09:16:21;;;;;;;2.22;0.60;;;23.40;99.90;;;;;;5023162;28;20216;-68
2022/05/26 09:19:13;;;;;;;2.72;0.70;;;22.70;99.90;;;;;;5025772;28;20187;-67
2022/05/26 09:21:40;;;;;;;2.22;0.95;;;22.30;99.90;;;;;;5027457;28;20199;-68
2022/05/26 09:24:30;;;;;;;3.50;1.02;;;22.10;99.90;;;;;;5022998;28;20225;-68
2022/05/26 09:27:22;;;;;;;1.83;0.70;;;22.50;99.90;;;;;;5025555;28;20223;-68
2022/05/26 09:29:49;;;;;;;2.45;0.93;;;22.50;99.90;;;;;;5029664;28;20669;-68
2022/05/26 09:32:17;;;;;;;0.98;0.80;;;22.60;99.90;;;;;;5028865;28;20249;-67
2022/05/26 09:35:12;;;;;;;1.75;0.82;;;22.10;99.90;;;;;;5031669;28;20253;-68
2022/05/26 09:37:41;;;;;;;0.80;0.70;;;22.00;99.90;;;;;;5025097;28;20847;-67
2022/05/26 09:40:20;;;;;;;1.27;0.80;;;21.90;99.90;;;;;;5028001;28;20191;-68
2022/05/26 09:42:58;;;;;;;4.15;0.98;;;21.90;99.90;;;;;;5030506;28;20688;-69
2022/05/26 09:45:51;;;;;;;2.25;0.80;;;21.80;99.90;;;;;;5027726;28;20215;-68
2022/05/26 09:48:32;;;;;;;4.05;0.90;;;21.90;99.90;;;;;;5029370;28;20199;-68
2022/05/26 09:51:02;;;;;;;3.65;0.80;;;21.70;99.90;;;;;;5031643;28;20200;-67
2022/05/26 09:53:35;;;;;;;2.45;0.65;;;21.90;99.90;;;;;;5029563;28;20203;-67
2022/05/26 09:56:02;;;;;;;0.75;0.60;;;22.10;99.90;;;;;;5028095;28;20207;-68
2022/05/26 09:58:42;;;;;;;0.85;0.50;;;22.20;99.90;;;;;;5027106;28;20755;-68
2022/05/26 10:01:24;;;;;;;1.52;0.80;;;22.50;99.90;;;;;;5029774;28;20195;-66
2022/05/26 10:04:06;;;;;;;2.97;0.80;;;22.90;99.90;;;;;;5026342;28;20972;-65
2022/05/26 10:06:39;;;;;;;1.73;0.60;;;23.00;99.90;;;;;;5031197;28;20195;-65
2022/05/26 10:09:19;;;;;;;0.73;0.50;;;23.30;99.90;;;;;;5028815;28;20210;-66
2022/05/26 10:11:52;;;;;;;1.88;0.80;;;23.90;99.90;;;;;;5026831;28;20230;-65
2022/05/26 10:14:55;;;;;;;0.82;0.63;;;23.60;99.90;;;;;;5028805;28;20238;-67
2022/05/26 10:17:47;;;;;;;2.30;0.80;;;24.00;99.90;;;;;;5025297;28;20219;-67
2022/05/26 10:20:13;;;;;;;2.50;1.08;;;24.20;99.90;;;;;;5024425;28;20195;-67
2022/05/26 10:23:09;;;;;;;1.83;1.38;;;24.00;99.90;;;;;;5025326;28;20191;-67
2022/05/26 10:25:45;;;;;;;2.42;1.75;;;23.70;99.90;;;;;;5027037;28;20207;-68
2022/05/26 10:28:38;;;;;;;0.80;0.60;;;23.60;99.90;;;;;;5030234;28;20199;-68
2022/05/26 10:31:18;;;;;;;1.38;0.60;;;23.60;99.90;;;;;;5026712;28;20200;-67
2022/05/26 10:34:21;;;;;;;2.28;0.70;;;24.00;99.90;;;;;;5023714;28;20200;-67
2022/05/26 10:37:03;;;;;;;0.95;0.80;;;24.50;99.90;;;;;;5027972;28;20211;-67
2022/05/26 10:39:54;;;;;;;3.83;1.38;;;24.60;99.90;;;;;;5024542;28;20191;-67
2022/05/26 10:42:27;;;;;;;1.30;0.80;;;24.90;99.90;;;;;;5027121;28;20204;-67
2022/05/26 10:45:26;;;;;;;4.53;0.80;;;23.80;99.90;;;;;;5029528;28;20725;-68
2022/05/26 10:48:07;;;;;;;1.92;0.70;;;23.70;99.90;;;;;;5026053;28;20203;-67
2022/05/26 10:50:44;;;;;;;2.40;0.80;;;23.00;99.90;;;;;;5029368;28;20203;-65
2022/05/26 10:53:25;;;;;;;1.10;0.95;;;22.60;99.90;;;;;;5030276;28;20214;-65
2022/05/26 10:56:08;;;;;;;2.15;1.50;;;22.80;99.90;;;;;;5028816;28;20629;-65
2022/05/26 10:58:42;;;;;;;4.68;1.98;;;22.70;99.90;;;;;;5023126;28;20216;-67
2022/05/26 11:01:31;;;;;;;3.10;1.42;;;22.50;99.90;;;;;;5027963;28;20200;-67
2022/05/26 11:04:09;;;;;;;3.35;1.00;;;22.60;99.90;;;;;;5025384;28;20302;-67
2022/05/26 11:06:39;;;;;;;2.10;1.33;;;23.20;99.90;;;;;;5027200;28;20199;-68
2022/05/26 11:09:36;;;;;;;2.25;1.10;;;23.50;99.90;;;;;;5029496;28;20565;-68
2022/05/26 11:12:34;;;;;;;8.25;5.15;;;23.60;99.90;;;;;;5025336;28;20674;-68
2022/05/26 11:18:19;;;;;;;1.70;1.13;;;23.70;99.90;;;;;;5028705;28;20219;-67
2022/05/26 11:20:53;;;;;;;1.92;1.10;;;24.00;99.90;;;;;;5025179;28;20571;-67
2022/05/26 11:23:21;;;;;;;4.55;0.95;;;24.30;99.90;;;;;;5026186;28;20199;-67
2022/05/26 11:25:59;;;;;;;1.48;1.00;;;24.80;99.90;;;;;;5029477;28;20219;-67
2022/05/26 11:28:39;;;;;;;3.20;1.08;;;25.30;99.90;;;;;;5026770;28;20203;-67
2022/05/26 11:36:56;;;;;;;2.28;1.20;;;25.60;99.90;;;;;;5028075;28;20227;-66
2022/05/26 11:39:44;;;;;;;1.77;1.00;;;25.60;99.90;;;;;;5029613;28;20203;-67
2022/05/26 11:42:24;;;;;;;2.40;1.38;;;26.10;99.90;;;;;;5032942;28;20202;-68
2022/05/26 11:44:56;;;;;;;3.60;1.00;;;26.50;99.90;;;;;;5029492;28;20225;-68
2022/05/26 11:47:26;;;;;;;2.05;1.10;;;26.40;99.90;;;;;;5025306;28;20208;-65
2022/05/26 11:49:53;;;;;;;1.95;0.85;;;26.40;99.90;;;;;;5021603;28;20204;-65
2022/05/26 11:52:34;;;;;;;1.15;0.90;;;26.60;99.90;;;;;;5026273;28;20205;-65
2022/05/26 11:55:07;;;;;;;2.33;1.02;;;26.30;99.90;;;;;;5028464;28;20214;-65
2022/05/26 11:57:35;;;;;;;2.72;0.98;;;25.80;99.90;;;;;;5025139;28;20215;-65
2022/05/26 12:00:34;;;;;;;1.08;0.80;;;25.20;99.90;;;;;;5018387;28;20705;-65
2022/05/26 12:03:23;;;;;;;1.98;1.13;;;24.80;99.90;;;;;;5024349;28;20202;-65
2022/05/26 12:06:07;;;;;;;1.15;0.90;;;24.70;99.90;;;;;;5027310;28;20211;-65
2022/05/26 12:08:52;;;;;;;1.83;0.82;;;25.10;99.90;;;;;;5025049;28;20203;-66
2022/05/26 12:11:22;;;;;;;1.02;0.90;;;25.50;99.90;;;;;;5025096;28;20665;-66
2022/05/26 12:14:03;;;;;;;0.88;0.82;;;25.60;99.90;;;;;;5024175;28;20223;-68
2022/05/26 12:16:29;;;;;;;1.63;1.10;;;26.10;99.90;;;;;;5029272;28;20206;-67
2022/05/26 12:19:04;;;;;;;1.65;0.90;;;26.40;99.90;;;;;;5028402;28;20223;-65
2022/05/26 12:21:35;;;;;;;1.73;1.05;;;26.70;99.90;;;;;;5026245;28;20310;-66
2022/05/26 12:24:31;;;;;;;1.45;0.85;;;27.00;99.90;;;;;;5028559;28;20220;-65
2022/05/26 12:27:00;;;;;;;2.03;1.02;;;27.10;99.90;;;;;;5032375;28;20199;-68
2022/05/26 12:29:48;;;;;;;1.38;0.95;;;26.90;99.90;;;;;;5027848;28;20195;-68
2022/05/26 12:32:25;;;;;;;1.55;0.98;;;26.80;99.90;;;;;;5028481;28;20196;-65
2022/05/26 12:34:57;;;;;;;6.43;1.33;;;26.30;99.90;;;;;;5027094;28;20596;-65
2022/05/26 12:38:02;;;;;;;2.33;0.93;;;25.20;99.90;;;;;;5026864;28;20670;-66
2022/05/26 12:40:49;;;;;;;2.40;0.90;;;24.70;99.90;;;;;;5024102;28;20191;-66
2022/05/26 12:43:27;;;;;;;2.17;1.25;;;24.80;99.90;;;;;;5023701;28;20196;-66
2022/05/26 12:46:09;;;;;;;1.55;1.00;;;24.80;99.90;;;;;;5027388;28;20187;-65
2022/05/26 12:48:54;;;;;;;2.40;1.10;;;25.20;99.90;;;;;;5024142;28;20200;-66
2022/05/26 12:51:21;;;;;;;6.35;1.10;;;25.30;99.90;;;;;;5031010;28;20676;-66
2022/05/26 12:53:54;;;;;;;2.97;1.08;;;25.60;99.90;;;;;;5022727;28;22370;-66
2022/05/26 12:56:39;;;;;;;2.80;0.80;;;25.80;99.90;;;;;;5025074;28;20203;-66
2022/05/26 12:59:06;;;;;;;1.55;0.98;;;26.00;99.90;;;;;;5028360;28;20219;-66
2022/05/26 13:01:34;;;;;;;2.40;1.20;;;26.10;99.90;;;;;;5026533;28;20207;-65
2022/05/26 13:04:08;;;;;;;2.47;0.80;;;26.00;99.90;;;;;;5021186;28;20717;-65
2022/05/26 13:06:38;;;;;;;1.98;0.90;;;25.80;99.90;;;;;;5026456;28;20246;-66
2022/05/26 13:09:13;;;;;;;1.83;1.00;;;25.80;99.90;;;;;;5026498;28;20204;-65
2022/05/26 13:11:48;;;;;;;1.67;0.80;;;24.80;99.90;;;;;;5025210;28;20217;-66
2022/05/26 13:15:01;;;;;;;1.67;0.93;;;24.50;99.90;;;;;;5028089;28;20226;-66
2022/05/26 13:17:29;;;;;;;2.30;0.90;;;24.60;99.90;;;;;;5024002;28;20219;-66
2022/05/26 13:19:56;;;;;;;2.85;1.17;;;24.60;99.90;;;;;;5025754;28;20196;-66
2022/05/26 13:22:35;;;;;;;2.40;1.20;;;25.30;99.90;;;;;;5025059;28;20192;-66
2022/05/26 13:25:23;;;;;;;1.92;0.93;;;26.00;99.90;;;;;;5018953;28;20215;-66
2022/05/26 13:27:54;;;;;;;0.90;0.80;;;26.50;99.90;;;;;;5027490;28;20196;-66
2022/05/26 13:33:22;;;;;;;3.40;1.00;;;26.60;99.90;;;;;;5027620;28;20210;-66
2022/05/26 13:36:00;;;;;;;3.05;0.98;;;26.50;99.90;;;;;;5027066;28;20215;-66
2022/05/26 13:38:32;;;;;;;7.45;1.00;;;26.10;99.90;;;;;;5025225;28;20214;-66
2022/05/26 13:41:01;;;;;;;1.83;0.95;;;26.10;99.90;;;;;;5027371;28;20561;-66
2022/05/26 13:43:30;;;;;;;1.10;0.88;;;25.90;99.90;;;;;;5023549;28;20196;-66
2022/05/26 13:45:57;;;;;;;2.22;1.00;;;25.90;99.90;;;;;;5027690;28;20196;-67
2022/05/26 13:48:30;;;;;;;2.45;1.15;;;25.50;99.90;;;;;;5026969;28;20314;-66
2022/05/26 13:51:04;;;;;;;2.35;0.90;;;25.20;99.90;;;;;;5027254;28;20203;-66
2022/05/26 13:53:46;;;;;;;1.52;1.00;;;24.90;99.90;;;;;;5023387;28;20196;-66
2022/05/26 13:56:22;;;;;;;3.38;1.20;;;25.00;99.90;;;;;;5023732;28;20207;-66
2022/05/26 13:59:09;;;;;;;1.52;0.93;;;24.50;99.90;;;;;;5026223;28;20220;-66
2022/05/26 14:01:41;;;;;;;1.42;1.13;;;24.60;99.90;;;;;;5024344;28;20192;-66
2022/05/26 14:04:28;;;;;;;1.95;1.10;;;25.30;99.90;;;;;;5015974;28;21549;-66
2022/05/26 14:06:55;;;;;;;4.00;1.23;;;25.60;99.90;;;;;;5019731;28;20216;-66